Time;durP1;ratioP1;P1;durP2;ratioP2;P2;SDS_P1;SDS_P2;PMS_P1;PMS_P2;Temp;Humidity;BMP_temperature;BMP_pressure;BME280_temperature;BME280_humidity;BME280_pressure;Samples;Min_cycle;Max_cycle;Signal;HPM_P1;HPM_P2
2022/06/04 00:00:27;;;;;;;5.85;4.72;;;16.50;56.80;;;;;;580627;246;26680;-73
2022/06/04 00:02:55;;;;;;;5.07;4.50;;;16.60;56.80;;;;;;580360;246;26888;-73
2022/06/04 00:05:23;;;;;;;3.87;3.05;;;16.60;56.90;;;;;;580642;248;26637;-73
2022/06/04 00:07:51;;;;;;;7.72;5.47;;;16.70;57.70;;;;;;580560;248;26605;-73
2022/06/04 00:15:29;;;;;;;6.18;4.93;;;16.70;57.10;;;;;;580527;247;27094;-74
2022/06/04 00:17:56;;;;;;;6.55;5.03;;;16.70;57.20;;;;;;580470;248;26905;-71
2022/06/04 00:20:24;;;;;;;6.18;4.68;;;16.70;57.40;;;;;;580470;246;26869;-74
2022/06/04 00:22:51;;;;;;;6.18;4.87;;;16.80;57.20;;;;;;580386;248;26621;-74
2022/06/04 00:25:18;;;;;;;5.07;4.55;;;16.80;57.20;;;;;;579544;248;26892;-74
2022/06/04 00:27:45;;;;;;;5.70;4.68;;;16.90;57.30;;;;;;580093;247;26632;-72
2022/06/04 00:30:12;;;;;;;5.65;4.40;;;16.90;57.30;;;;;;579885;247;26910;-73
2022/06/04 00:32:40;;;;;;;5.90;4.90;;;16.90;57.30;;;;;;579803;248;26914;-73
2022/06/04 00:35:08;;;;;;;6.12;4.70;;;16.90;57.50;;;;;;579814;247;26735;-73
2022/06/04 00:37:35;;;;;;;4.60;4.12;;;16.90;57.50;;;;;;579777;246;26699;-73
2022/06/04 00:40:02;;;;;;;4.87;4.03;;;16.80;57.40;;;;;;579862;247;26911;-73
2022/06/04 00:42:29;;;;;;;5.72;4.37;;;16.80;57.60;;;;;;579777;247;27053;-73
2022/06/04 00:45:05;;;;;;;5.80;4.18;;;16.90;57.70;;;;;;579809;248;26655;-73
2022/06/04 00:47:32;;;;;;;4.43;3.87;;;16.90;57.60;;;;;;578034;248;26695;-73
2022/06/04 00:49:59;;;;;;;5.03;4.30;;;16.90;57.70;;;;;;579816;247;26669;-72
2022/06/04 00:52:26;;;;;;;4.05;3.65;;;16.90;57.90;;;;;;579787;247;26891;-72
2022/06/04 00:54:54;;;;;;;3.08;2.75;;;16.90;57.70;;;;;;579813;247;26728;-72
2022/06/04 00:57:24;;;;;;;3.97;3.28;;;16.90;57.80;;;;;;579869;248;26702;-73
2022/06/04 01:00:11;;;;;;;5.53;3.92;;;16.80;57.70;;;;;;578831;248;26624;-74
2022/06/04 01:02:51;;;;;;;4.40;4.00;;;16.80;57.80;;;;;;588951;243;26657;-73
2022/06/04 01:05:30;;;;;;;6.12;4.47;;;16.80;57.80;;;;;;580971;246;26683;-73
2022/06/04 01:08:16;;;;;;;4.75;3.72;;;16.80;58.00;;;;;;580508;247;26884;-73
2022/06/04 01:10:58;;;;;;;4.82;3.87;;;16.80;58.20;;;;;;577785;247;26668;-72
2022/06/04 01:13:36;;;;;;;3.33;3.03;;;16.80;58.20;;;;;;580337;247;26686;-72
2022/06/04 01:16:07;;;;;;;4.70;3.67;;;16.70;58.10;;;;;;579797;248;26637;-73
2022/06/04 01:18:41;;;;;;;4.47;4.00;;;16.70;58.30;;;;;;579759;248;26628;-73
2022/06/04 01:21:38;;;;;;;4.72;3.95;;;16.70;58.40;;;;;;580196;248;26845;-73
2022/06/04 01:24:22;;;;;;;5.12;3.55;;;16.70;58.60;;;;;;578423;248;26641;-73
2022/06/04 01:27:16;;;;;;;4.40;3.40;;;16.70;58.50;;;;;;580310;248;26606;-72
2022/06/04 01:29:45;;;;;;;5.78;3.37;;;16.70;58.60;;;;;;580366;248;26601;-72
2022/06/04 01:32:16;;;;;;;4.03;3.05;;;16.70;58.60;;;;;;580240;247;26861;-74
2022/06/04 01:34:44;;;;;;;3.75;3.40;;;16.70;58.70;;;;;;580175;248;26875;-74
2022/06/04 01:37:23;;;;;;;4.43;3.28;;;16.70;58.90;;;;;;591115;242;26634;-73
2022/06/04 01:42:24;;;;;;;4.12;3.00;;;16.70;58.90;;;;;;580170;247;26860;-73
2022/06/04 01:44:52;;;;;;;4.50;3.35;;;16.70;58.90;;;;;;579786;242;26924;-73
2022/06/04 01:47:19;;;;;;;2.70;2.40;;;16.70;58.90;;;;;;579866;247;26680;-73
2022/06/04 01:49:46;;;;;;;3.08;2.85;;;16.70;59.00;;;;;;590502;243;26806;-73
2022/06/04 01:52:15;;;;;;;4.32;3.58;;;16.70;59.00;;;;;;579686;248;26701;-73
2022/06/04 01:54:49;;;;;;;3.42;3.12;;;16.60;59.00;;;;;;579716;248;27346;-74
2022/06/04 01:57:21;;;;;;;4.62;3.37;;;16.60;59.10;;;;;;580334;248;26844;-73
2022/06/04 01:59:49;;;;;;;3.62;3.33;;;16.60;59.00;;;;;;579769;248;26730;-73
2022/06/04 02:02:17;;;;;;;3.22;2.80;;;16.60;58.90;;;;;;579708;248;26666;-73
2022/06/04 02:04:47;;;;;;;3.67;3.28;;;16.60;59.00;;;;;;579689;247;26711;-73
2022/06/04 02:09:46;;;;;;;3.85;3.42;;;16.50;59.00;;;;;;579805;247;26673;-73
2022/06/04 02:12:13;;;;;;;3.30;3.00;;;16.60;58.90;;;;;;579674;248;27010;-73
2022/06/04 02:14:40;;;;;;;3.00;2.65;;;16.50;59.00;;;;;;579773;246;26671;-73
2022/06/04 02:17:08;;;;;;;2.97;2.78;;;16.50;58.90;;;;;;581300;246;26635;-73
2022/06/04 02:19:36;;;;;;;3.30;3.00;;;16.50;58.90;;;;;;580756;247;26878;-73
2022/06/04 02:22:03;;;;;;;2.80;2.60;;;16.50;58.60;;;;;;580629;246;26680;-73
2022/06/04 02:24:30;;;;;;;3.10;2.80;;;16.50;58.80;;;;;;580606;246;26695;-73
2022/06/04 02:26:58;;;;;;;3.30;3.00;;;16.50;58.70;;;;;;580416;247;26850;-73
2022/06/04 02:29:25;;;;;;;3.75;2.87;;;16.40;58.90;;;;;;580402;246;26636;-73
2022/06/04 02:31:57;;;;;;;3.70;3.22;;;16.40;58.70;;;;;;580293;248;26870;-73
2022/06/04 02:34:25;;;;;;;3.42;2.85;;;16.40;59.00;;;;;;580194;242;26629;-73
2022/06/04 02:37:00;;;;;;;2.53;2.33;;;16.40;58.50;;;;;;590755;243;26865;-73
2022/06/04 02:39:34;;;;;;;2.95;2.75;;;16.40;58.80;;;;;;580504;248;26603;-74
2022/06/04 02:42:03;;;;;;;2.95;2.75;;;16.40;58.50;;;;;;580360;248;26586;-73
2022/06/04 02:44:30;;;;;;;3.42;2.75;;;16.30;58.40;;;;;;590989;239;26871;-74
2022/06/04 02:47:04;;;;;;;2.97;2.70;;;16.30;58.60;;;;;;580250;246;26618;-74
2022/06/04 02:49:50;;;;;;;3.42;3.10;;;16.30;58.50;;;;;;580357;248;26891;-73
2022/06/04 02:52:17;;;;;;;3.00;2.55;;;16.30;58.40;;;;;;586474;242;26634;-74
2022/06/04 02:54:47;;;;;;;3.78;2.95;;;16.30;58.60;;;;;;579776;248;26766;-73
2022/06/04 02:57:14;;;;;;;2.70;2.50;;;16.30;58.20;;;;;;579547;245;27225;-71
2022/06/04 02:59:42;;;;;;;5.25;3.08;;;16.20;58.00;;;;;;579817;248;26686;-70
2022/06/04 03:02:10;;;;;;;3.20;2.72;;;16.20;58.40;;;;;;579803;248;26680;-69
2022/06/04 03:04:45;;;;;;;2.45;2.25;;;16.20;58.30;;;;;;579738;247;26690;-69
2022/06/04 03:07:12;;;;;;;3.60;2.60;;;16.10;58.20;;;;;;579785;247;26700;-73
2022/06/04 03:09:39;;;;;;;6.18;3.00;;;16.20;58.20;;;;;;579866;247;26936;-65
2022/06/04 03:12:07;;;;;;;6.97;2.78;;;16.10;58.20;;;;;;579809;247;26675;-64
2022/06/04 03:14:34;;;;;;;7.70;3.05;;;16.10;58.10;;;;;;579867;248;26700;-65
2022/06/04 03:17:02;;;;;;;7.45;2.80;;;16.10;58.30;;;;;;579856;247;26942;-65
2022/06/04 03:19:29;;;;;;;5.00;2.85;;;16.00;57.90;;;;;;579892;247;26698;-66
2022/06/04 03:21:56;;;;;;;4.55;2.42;;;16.00;58.20;;;;;;579794;247;27341;-66
2022/06/04 03:24:23;;;;;;;5.25;2.80;;;16.00;58.60;;;;;;579827;247;26728;-66
2022/06/04 03:26:50;;;;;;;4.68;3.00;;;16.00;58.20;;;;;;580268;246;26888;-65
2022/06/04 03:29:18;;;;;;;6.30;2.83;;;16.00;58.30;;;;;;581183;246;26668;-66
2022/06/04 03:31:45;;;;;;;5.15;2.58;;;15.90;58.10;;;;;;580810;246;26835;-66
2022/06/04 03:34:12;;;;;;;3.45;2.95;;;15.90;57.90;;;;;;580670;246;26690;-65
2022/06/04 03:36:39;;;;;;;3.40;2.70;;;15.90;58.40;;;;;;580539;242;27365;-66
2022/06/04 03:39:07;;;;;;;3.67;2.65;;;15.90;58.40;;;;;;580323;248;26629;-66
2022/06/04 03:41:34;;;;;;;3.90;2.60;;;15.90;57.90;;;;;;580327;247;26661;-66
2022/06/04 03:44:02;;;;;;;3.05;2.65;;;15.90;57.70;;;;;;580380;247;26648;-66
2022/06/04 03:46:30;;;;;;;3.42;2.78;;;15.80;57.50;;;;;;580199;247;26640;-66
2022/06/04 03:48:58;;;;;;;2.80;2.60;;;15.80;57.60;;;;;;580077;247;26628;-66
2022/06/04 03:51:26;;;;;;;4.35;2.10;;;15.80;57.60;;;;;;580386;247;26604;-66
2022/06/04 03:53:53;;;;;;;2.45;2.28;;;15.80;57.60;;;;;;580438;248;26613;-66
2022/06/04 03:56:20;;;;;;;3.28;2.50;;;15.80;57.90;;;;;;580502;247;26613;-66
2022/06/04 03:58:47;;;;;;;2.50;2.30;;;15.80;58.00;;;;;;580501;247;26867;-66
2022/06/04 04:01:15;;;;;;;2.05;1.90;;;15.80;58.20;;;;;;580461;247;26597;-66
2022/06/04 04:03:42;;;;;;;2.15;1.95;;;15.80;58.00;;;;;;591022;242;26644;-66
2022/06/04 04:06:12;;;;;;;3.00;2.40;;;15.80;57.70;;;;;;580223;247;26920;-66
2022/06/04 04:08:39;;;;;;;2.95;2.62;;;15.90;57.10;;;;;;580199;247;26597;-65
2022/06/04 04:11:06;;;;;;;2.70;2.50;;;16.00;57.00;;;;;;580007;247;26909;-66
2022/06/04 04:13:34;;;;;;;2.37;2.25;;;16.10;57.20;;;;;;579663;248;26672;-66
2022/06/04 04:16:01;;;;;;;3.67;2.40;;;16.20;56.90;;;;;;579770;248;26953;-66
2022/06/04 04:18:28;;;;;;;2.80;2.58;;;16.20;56.80;;;;;;579741;248;26688;-66
2022/06/04 04:20:55;;;;;;;3.55;2.33;;;16.20;56.20;;;;;;579855;247;26897;-66
2022/06/04 04:23:22;;;;;;;2.92;2.50;;;16.30;56.00;;;;;;579878;247;26648;-66
2022/06/04 04:25:49;;;;;;;2.60;2.20;;;16.20;55.70;;;;;;579880;248;26935;-66
2022/06/04 04:28:17;;;;;;;2.17;1.98;;;16.30;56.20;;;;;;579957;248;26675;-66
2022/06/04 04:30:45;;;;;;;5.53;2.30;;;16.30;55.80;;;;;;579878;247;26637;-65
2022/06/04 04:33:13;;;;;;;2.50;2.30;;;16.30;55.60;;;;;;579832;247;26664;-65
2022/06/04 04:35:41;;;;;;;4.07;1.90;;;16.30;56.10;;;;;;579798;247;26740;-65
2022/06/04 04:38:11;;;;;;;2.40;2.20;;;16.40;55.30;;;;;;579945;246;26688;-66
2022/06/04 04:40:36;;;;;;;2.50;2.20;;;16.40;55.30;;;;;;581182;247;26596;-66
2022/06/04 04:43:04;;;;;;;2.70;2.20;;;16.40;55.90;;;;;;580735;247;26612;-66
2022/06/04 04:45:33;;;;;;;2.15;2.00;;;16.50;55.30;;;;;;580617;246;26709;-66
2022/06/04 04:48:00;;;;;;;1.87;1.73;;;16.50;55.50;;;;;;581032;246;26668;-66
2022/06/04 04:50:28;;;;;;;3.97;2.30;;;16.40;55.10;;;;;;591129;243;26646;-66
2022/06/04 04:52:55;;;;;;;2.55;2.35;;;16.40;55.10;;;;;;590933;243;26673;-66
2022/06/04 04:55:23;;;;;;;2.87;2.37;;;16.40;55.20;;;;;;580341;247;26653;-66
2022/06/04 04:57:51;;;;;;;3.47;2.20;;;16.40;55.40;;;;;;580145;248;26645;-65
2022/06/04 05:00:20;;;;;;;2.33;2.10;;;16.40;55.00;;;;;;580104;248;26629;-66
2022/06/04 05:02:47;;;;;;;2.65;2.15;;;16.40;54.90;;;;;;580067;248;26633;-66
2022/06/04 05:05:14;;;;;;;2.10;1.98;;;16.50;55.20;;;;;;580094;247;26909;-65
2022/06/04 05:07:41;;;;;;;3.35;2.50;;;16.50;54.80;;;;;;580175;247;26643;-65
2022/06/04 05:10:09;;;;;;;2.60;2.40;;;16.60;55.00;;;;;;580371;248;26858;-66
2022/06/04 05:12:37;;;;;;;2.45;2.00;;;16.80;54.30;;;;;;580441;247;26629;-66
2022/06/04 05:15:05;;;;;;;2.12;2.03;;;16.80;54.30;;;;;;580345;247;26644;-66
2022/06/04 05:17:32;;;;;;;1.85;1.70;;;17.10;55.00;;;;;;580214;246;26696;-66
2022/06/04 05:19:59;;;;;;;4.12;2.25;;;17.30;53.80;;;;;;580202;248;26886;-66
2022/06/04 05:22:26;;;;;;;2.22;2.10;;;17.30;53.20;;;;;;580184;248;26637;-66
2022/06/04 05:24:53;;;;;;;3.42;2.40;;;17.30;53.00;;;;;;579885;246;27183;-65
2022/06/04 05:27:21;;;;;;;2.03;1.92;;;17.40;53.10;;;;;;579883;247;26685;-65
2022/06/04 05:29:48;;;;;;;2.28;2.08;;;17.60;52.70;;;;;;579825;247;27203;-66
2022/06/04 05:32:16;;;;;;;2.30;2.10;;;17.80;52.20;;;;;;579830;247;26681;-66
2022/06/04 05:34:44;;;;;;;2.60;1.77;;;17.70;52.60;;;;;;579840;248;26696;-66
2022/06/04 05:37:12;;;;;;;2.30;2.05;;;17.70;52.50;;;;;;579871;247;26675;-66
2022/06/04 05:39:40;;;;;;;1.87;1.77;;;17.60;52.40;;;;;;579794;248;26708;-66
2022/06/04 05:42:07;;;;;;;2.55;2.20;;;17.60;52.40;;;;;;579809;246;26687;-66
2022/06/04 05:44:34;;;;;;;2.12;2.03;;;17.60;53.10;;;;;;579800;248;26942;-66
2022/06/04 05:47:04;;;;;;;2.25;2.12;;;17.60;52.90;;;;;;579876;247;26693;-66
2022/06/04 05:49:30;;;;;;;2.33;2.10;;;17.60;53.00;;;;;;579858;247;26690;-66
2022/06/04 05:51:58;;;;;;;2.28;2.05;;;17.70;52.90;;;;;;581383;246;26620;-66
2022/06/04 05:54:26;;;;;;;1.75;1.65;;;17.80;52.70;;;;;;580835;247;26667;-66
2022/06/04 05:56:53;;;;;;;2.25;2.08;;;17.80;52.80;;;;;;580642;247;26766;-66
2022/06/04 05:59:21;;;;;;;1.95;1.80;;;18.00;53.30;;;;;;580563;247;26640;-66
2022/06/04 06:01:48;;;;;;;1.80;1.70;;;18.10;53.10;;;;;;590938;242;26850;-66
2022/06/04 06:04:15;;;;;;;1.80;1.70;;;18.30;53.30;;;;;;580263;247;26647;-66
2022/06/04 06:06:43;;;;;;;1.80;1.70;;;18.40;52.40;;;;;;580286;248;26908;-66
2022/06/04 06:09:12;;;;;;;2.20;1.90;;;18.20;52.20;;;;;;580022;246;26633;-65
2022/06/04 06:11:39;;;;;;;3.08;2.00;;;18.20;52.20;;;;;;580079;247;26847;-66
2022/06/04 06:14:07;;;;;;;2.62;1.87;;;18.30;52.50;;;;;;580058;247;26675;-66
2022/06/04 06:16:34;;;;;;;2.25;2.00;;;18.60;52.10;;;;;;579946;248;27013;-66
2022/06/04 06:19:01;;;;;;;1.98;1.40;;;18.60;52.10;;;;;;580045;248;26871;-66
2022/06/04 06:21:29;;;;;;;2.65;1.92;;;18.80;50.80;;;;;;580000;247;26645;-66
2022/06/04 06:23:56;;;;;;;2.28;2.03;;;18.80;51.80;;;;;;580495;247;27187;-66
2022/06/04 06:26:23;;;;;;;1.95;1.80;;;18.90;50.10;;;;;;579897;248;26651;-65
2022/06/04 06:28:50;;;;;;;1.83;1.73;;;18.90;49.80;;;;;;580157;247;26890;-66
2022/06/04 06:31:19;;;;;;;1.95;1.77;;;18.90;49.60;;;;;;580195;246;26640;-66
2022/06/04 06:33:46;;;;;;;1.73;1.62;;;19.00;50.80;;;;;;580009;248;26656;-66
2022/06/04 06:36:13;;;;;;;1.58;1.50;;;19.20;50.20;;;;;;580207;247;27092;-65
2022/06/04 06:38:40;;;;;;;1.80;1.60;;;19.40;49.50;;;;;;580229;247;26659;-66
2022/06/04 06:41:07;;;;;;;2.15;2.05;;;19.40;49.50;;;;;;580226;247;26890;-66
2022/06/04 06:43:50;;;;;;;2.00;1.90;;;19.50;48.80;;;;;;580118;247;26661;-66
2022/06/04 06:46:18;;;;;;;2.05;1.95;;;19.40;49.30;;;;;;579890;248;26902;-66
2022/06/04 06:48:45;;;;;;;1.90;1.80;;;19.50;49.70;;;;;;579792;248;26710;-66
2022/06/04 06:51:12;;;;;;;2.20;1.60;;;19.50;49.30;;;;;;590513;243;27246;-66
2022/06/04 06:53:40;;;;;;;1.85;1.73;;;19.50;49.70;;;;;;579722;247;26678;-65
2022/06/04 06:56:08;;;;;;;2.05;1.67;;;19.40;49.80;;;;;;579798;247;26641;-66
2022/06/04 06:58:35;;;;;;;1.80;1.70;;;19.40;49.10;;;;;;579791;247;26700;-66
2022/06/04 07:01:03;;;;;;;2.50;1.73;;;19.30;49.90;;;;;;579865;248;27012;-66
2022/06/04 07:03:31;;;;;;;1.87;1.77;;;19.30;49.50;;;;;;581265;246;26923;-66
2022/06/04 07:05:59;;;;;;;2.28;2.10;;;19.30;49.50;;;;;;580864;246;27317;-66
2022/06/04 07:08:26;;;;;;;1.92;1.75;;;19.30;49.00;;;;;;580762;248;26689;-65
2022/06/04 07:10:53;;;;;;;2.45;1.65;;;19.10;48.80;;;;;;580725;246;27372;-64
2022/06/04 07:13:20;;;;;;;1.80;1.70;;;19.10;50.00;;;;;;580362;248;26639;-65
2022/06/04 07:15:48;;;;;;;1.83;1.73;;;19.10;48.80;;;;;;580353;247;27188;-65
2022/06/04 07:18:15;;;;;;;1.73;1.62;;;19.50;49.50;;;;;;580307;248;26637;-65
2022/06/04 07:20:43;;;;;;;1.77;1.67;;;19.70;48.80;;;;;;580195;247;26629;-65
2022/06/04 07:23:11;;;;;;;1.90;1.33;;;19.80;49.80;;;;;;580060;247;26618;-65
2022/06/04 07:25:41;;;;;;;1.77;1.67;;;19.90;48.40;;;;;;579997;248;26644;-65
2022/06/04 07:28:08;;;;;;;1.87;1.77;;;19.90;48.40;;;;;;580151;248;26671;-65
2022/06/04 07:30:35;;;;;;;1.90;1.70;;;19.80;47.40;;;;;;590858;242;26605;-65
2022/06/04 07:33:03;;;;;;;1.92;1.83;;;19.90;47.70;;;;;;580146;241;26873;-65
2022/06/04 07:35:30;;;;;;;2.08;1.73;;;20.00;47.40;;;;;;580402;248;26629;-65
2022/06/04 07:37:57;;;;;;;1.83;1.73;;;20.10;47.30;;;;;;580381;247;26923;-65
2022/06/04 07:40:25;;;;;;;1.90;1.58;;;20.10;48.30;;;;;;580219;247;26644;-65
2022/06/04 07:42:52;;;;;;;1.85;1.65;;;20.20;48.20;;;;;;580184;247;26917;-65
2022/06/04 07:45:19;;;;;;;3.08;1.73;;;20.10;47.00;;;;;;579883;247;26704;-66
2022/06/04 07:47:46;;;;;;;4.35;1.85;;;20.20;47.60;;;;;;579825;247;26692;-66
2022/06/04 07:50:14;;;;;;;2.05;1.90;;;20.00;46.40;;;;;;579919;247;26635;-66
2022/06/04 07:52:42;;;;;;;1.87;1.77;;;19.80;48.00;;;;;;579782;247;26915;-66
2022/06/04 07:55:10;;;;;;;1.70;1.60;;;19.80;48.30;;;;;;579847;247;26925;-66
2022/06/04 07:57:37;;;;;;;2.33;1.67;;;19.80;48.00;;;;;;579888;248;26680;-66
2022/06/04 08:00:05;;;;;;;1.80;1.70;;;19.70;47.80;;;;;;579814;248;27004;-66
2022/06/04 08:02:32;;;;;;;4.78;2.12;;;19.60;47.70;;;;;;579876;248;26684;-66
2022/06/04 08:05:00;;;;;;;2.25;1.60;;;19.50;48.40;;;;;;579805;248;26901;-66
2022/06/04 08:07:27;;;;;;;1.62;1.52;;;19.40;47.80;;;;;;579869;248;26672;-65
2022/06/04 08:09:54;;;;;;;2.00;1.90;;;19.40;48.80;;;;;;579905;247;26935;-65
2022/06/04 08:12:22;;;;;;;5.65;1.85;;;19.50;48.60;;;;;;579887;247;26692;-65
2022/06/04 08:14:48;;;;;;;1.70;1.60;;;19.50;49.00;;;;;;581189;246;26953;-65
2022/06/04 08:17:16;;;;;;;1.60;1.50;;;19.70;49.00;;;;;;580907;246;26636;-65
2022/06/04 08:19:44;;;;;;;1.67;1.58;;;19.70;48.40;;;;;;580558;247;26708;-65
2022/06/04 08:22:12;;;;;;;1.83;1.73;;;19.70;47.80;;;;;;580571;247;26682;-65
2022/06/04 08:24:40;;;;;;;1.60;1.50;;;19.60;48.00;;;;;;580382;247;26647;-66
2022/06/04 08:27:07;;;;;;;1.67;1.42;;;19.70;47.90;;;;;;580405;247;26853;-66
2022/06/04 08:29:35;;;;;;;1.70;1.60;;;19.70;48.30;;;;;;580429;248;26641;-65
2022/06/04 08:32:02;;;;;;;1.77;1.67;;;19.70;48.40;;;;;;580212;247;26865;-65
2022/06/04 08:34:31;;;;;;;1.80;1.70;;;20.00;48.70;;;;;;580531;247;26704;-65
2022/06/04 08:36:58;;;;;;;1.70;1.60;;;20.00;48.80;;;;;;580025;248;26643;-65
2022/06/04 08:39:26;;;;;;;1.80;1.70;;;20.10;47.90;;;;;;580098;247;26786;-65
2022/06/04 08:41:57;;;;;;;2.30;1.70;;;20.10;47.90;;;;;;580064;247;26895;-65
2022/06/04 08:44:33;;;;;;;1.67;1.58;;;20.20;48.00;;;;;;579847;248;26673;-65
2022/06/04 08:47:06;;;;;;;1.40;1.30;;;20.20;47.90;;;;;;580008;248;26646;-65
2022/06/04 08:49:32;;;;;;;2.08;1.67;;;20.20;47.20;;;;;;580113;247;26647;-65
2022/06/04 08:52:00;;;;;;;2.22;2.05;;;20.20;46.80;;;;;;579917;248;26661;-64
2022/06/04 08:59:38;;;;;;;2.50;1.50;;;20.50;47.10;;;;;;609850;236;26836;-64
2022/06/04 09:02:06;;;;;;;1.50;1.40;;;21.00;47.10;;;;;;609698;236;26599;-64
2022/06/04 09:04:46;;;;;;;1.35;1.17;;;21.00;47.00;;;;;;609332;236;26604;-64
2022/06/04 09:07:16;;;;;;;1.42;1.33;;;21.10;46.20;;;;;;609524;236;26602;-64
2022/06/04 09:09:46;;;;;;;1.60;1.50;;;21.20;46.30;;;;;;609794;236;26577;-64
2022/06/04 09:12:18;;;;;;;1.70;1.60;;;21.30;46.00;;;;;;609452;236;26826;-64
2022/06/04 09:14:45;;;;;;;7.53;1.60;;;21.40;46.40;;;;;;608876;235;26610;-64
2022/06/04 09:17:14;;;;;;;1.70;1.60;;;21.60;46.50;;;;;;609735;236;26823;-63
2022/06/04 09:19:41;;;;;;;1.58;1.48;;;21.70;46.20;;;;;;610179;236;26886;-64
2022/06/04 09:22:19;;;;;;;1.70;1.60;;;21.50;45.40;;;;;;610192;236;26549;-63
2022/06/04 09:24:46;;;;;;;3.08;1.70;;;21.40;45.90;;;;;;610666;233;26576;-63
2022/06/04 09:27:22;;;;;;;1.20;1.20;;;21.40;45.70;;;;;;611731;234;26549;-64
2022/06/04 09:29:55;;;;;;;1.90;1.20;;;21.20;46.30;;;;;;610954;235;26625;-64
2022/06/04 09:32:44;;;;;;;2.33;1.52;;;21.20;46.30;;;;;;610110;235;26588;-64
2022/06/04 09:35:00;;;;;;;1.58;1.48;;;21.30;46.40;;;;;;610213;235;26604;-64
2022/06/04 09:37:28;;;;;;;1.45;1.35;;;21.60;47.50;;;;;;610532;235;26596;-64
2022/06/04 09:40:02;;;;;;;1.50;1.40;;;21.80;48.20;;;;;;610475;236;26589;-65
2022/06/04 09:42:29;;;;;;;3.35;1.50;;;21.80;48.00;;;;;;603566;235;26852;-65
2022/06/04 09:45:00;;;;;;;4.78;1.50;;;21.90;46.80;;;;;;606830;234;26583;-65
2022/06/04 09:47:26;;;;;;;1.52;1.42;;;21.90;46.80;;;;;;606123;236;26613;-65
2022/06/04 09:49:56;;;;;;;1.77;1.30;;;22.00;47.80;;;;;;603364;237;26582;-65
2022/06/04 09:52:25;;;;;;;4.53;1.60;;;22.00;47.80;;;;;;603914;233;26568;-65
2022/06/04 09:54:54;;;;;;;1.85;1.40;;;22.00;47.00;;;;;;608291;236;26592;-65
2022/06/04 09:57:26;;;;;;;1.17;1.17;;;22.10;46.00;;;;;;602779;236;26586;-65
2022/06/04 09:59:54;;;;;;;1.48;1.37;;;22.50;46.90;;;;;;605419;236;26596;-64
2022/06/04 10:02:22;;;;;;;1.45;1.35;;;22.90;45.60;;;;;;605644;235;26633;-65
2022/06/04 10:04:49;;;;;;;2.33;1.50;;;22.80;45.60;;;;;;603608;238;26827;-65
2022/06/04 10:07:20;;;;;;;1.30;1.30;;;23.30;46.00;;;;;;604135;236;26587;-65
2022/06/04 10:12:21;;;;;;;1.35;1.20;;;23.60;44.70;;;;;;605807;235;26606;-65
2022/06/04 10:15:03;;;;;;;1.27;1.17;;;23.70;44.60;;;;;;600757;239;26654;-65
2022/06/04 10:17:33;;;;;;;1.60;1.30;;;23.70;44.50;;;;;;601508;237;26909;-64
2022/06/04 10:20:00;;;;;;;3.37;1.67;;;23.70;44.60;;;;;;601496;235;26951;-65
2022/06/04 10:22:27;;;;;;;5.00;1.40;;;23.90;44.00;;;;;;603133;237;26567;-65
2022/06/04 10:24:55;;;;;;;1.02;1.02;;;24.10;43.70;;;;;;602353;238;26992;-65
2022/06/04 10:27:31;;;;;;;1.23;1.20;;;24.20;44.70;;;;;;601820;237;26901;-65
2022/06/04 10:30:03;;;;;;;4.72;1.85;;;24.00;44.10;;;;;;604225;235;26597;-65
2022/06/04 10:32:31;;;;;;;1.55;1.50;;;23.90;43.90;;;;;;606215;235;26611;-65
2022/06/04 10:35:03;;;;;;;1.45;1.30;;;23.80;44.00;;;;;;601121;238;26867;-65
2022/06/04 10:37:42;;;;;;;1.80;1.42;;;23.80;44.10;;;;;;601963;237;26642;-65
2022/06/04 10:40:17;;;;;;;1.20;1.10;;;24.20;43.20;;;;;;604428;237;26639;-65
2022/06/04 10:42:46;;;;;;;1.33;1.23;;;24.20;43.20;;;;;;608442;235;26624;-66
2022/06/04 10:45:15;;;;;;;1.27;1.17;;;24.50;44.80;;;;;;603413;235;26644;-65
2022/06/04 10:47:55;;;;;;;2.00;1.10;;;24.80;44.20;;;;;;608907;236;26549;-65
2022/06/04 10:50:23;;;;;;;1.50;1.35;;;24.90;42.80;;;;;;602507;239;26802;-65
2022/06/04 10:52:52;;;;;;;2.60;1.70;;;24.90;42.20;;;;;;602200;239;26557;-65
2022/06/04 10:55:27;;;;;;;1.20;1.12;;;24.80;42.20;;;;;;602267;236;26601;-65
2022/06/04 10:58:01;;;;;;;1.77;1.60;;;24.70;43.10;;;;;;602298;236;26914;-65
2022/06/04 11:00:28;;;;;;;1.08;0.98;;;25.00;42.90;;;;;;601181;239;26816;-65
2022/06/04 11:02:57;;;;;;;1.58;1.12;;;25.10;43.10;;;;;;609601;235;26664;-66
2022/06/04 11:05:25;;;;;;;1.10;1.10;;;25.00;43.10;;;;;;605551;235;26605;-65
2022/06/04 11:08:07;;;;;;;1.15;1.15;;;25.20;42.70;;;;;;602610;233;26812;-65
2022/06/04 11:10:34;;;;;;;1.20;1.20;;;25.30;43.00;;;;;;602378;238;26577;-65
2022/06/04 11:13:08;;;;;;;3.05;1.67;;;25.70;41.70;;;;;;607974;236;26644;-66
2022/06/04 11:15:35;;;;;;;5.62;1.52;;;25.70;41.70;;;;;;608086;235;26614;-65
2022/06/04 11:18:04;;;;;;;1.50;1.25;;;26.10;40.90;;;;;;602669;236;26616;-65
2022/06/04 11:20:32;;;;;;;2.55;1.98;;;26.10;40.90;;;;;;603002;235;26874;-65
2022/06/04 11:23:14;;;;;;;2.22;1.30;;;26.10;40.80;;;;;;604496;235;26582;-65
2022/06/04 11:25:39;;;;;;;1.58;1.20;;;26.10;42.20;;;;;;611776;234;26657;-66
2022/06/04 11:28:07;;;;;;;1.83;1.73;;;25.90;40.60;;;;;;603437;233;26597;-65
2022/06/04 11:31:07;;;;;;;1.25;1.23;;;25.90;40.50;;;;;;603312;235;26625;-66
2022/06/04 11:34:06;;;;;;;1.67;1.20;;;26.20;42.00;;;;;;600235;236;26614;-66
2022/06/04 11:36:36;;;;;;;1.83;1.70;;;26.40;40.70;;;;;;604146;236;26870;-66
2022/06/04 11:39:08;;;;;;;1.45;1.35;;;26.50;40.60;;;;;;603590;238;26653;-66
2022/06/04 11:41:42;;;;;;;0.93;0.93;;;26.90;40.70;;;;;;611364;235;26651;-65
2022/06/04 11:44:32;;;;;;;1.27;1.17;;;26.90;40.90;;;;;;607105;236;26668;-64
2022/06/04 11:47:16;;;;;;;1.30;1.20;;;26.50;40.70;;;;;;592726;237;26647;-65
2022/06/04 11:49:45;;;;;;;2.72;1.92;;;26.80;40.00;;;;;;610157;233;26585;-67
2022/06/04 11:52:22;;;;;;;1.10;1.10;;;26.80;39.90;;;;;;603646;235;26942;-66
2022/06/04 11:55:26;;;;;;;1.15;1.05;;;27.00;40.10;;;;;;604454;237;26626;-66
2022/06/04 11:57:55;;;;;;;1.00;1.00;;;27.40;40.50;;;;;;599292;238;26712;-66
2022/06/04 12:00:28;;;;;;;1.20;1.10;;;27.70;40.20;;;;;;607181;236;26608;-66
2022/06/04 12:02:56;;;;;;;1.40;1.30;;;28.00;40.10;;;;;;604533;236;26557;-66
2022/06/04 12:05:31;;;;;;;1.30;1.10;;;28.20;40.00;;;;;;602427;238;26594;-66
2022/06/04 12:08:03;;;;;;;1.25;1.12;;;28.00;39.40;;;;;;604107;238;26550;-66
2022/06/04 12:10:29;;;;;;;1.05;1.05;;;28.20;40.60;;;;;;603341;236;26546;-66
2022/06/04 12:13:02;;;;;;;0.90;0.90;;;28.20;40.60;;;;;;606283;236;26592;-70
2022/06/04 12:15:32;;;;;;;1.12;1.12;;;28.60;39.60;;;;;;605026;234;26650;-66
2022/06/04 12:18:00;;;;;;;1.05;1.05;;;28.20;39.40;;;;;;603356;238;26591;-66
2022/06/04 12:25:50;;;;;;;1.35;1.27;;;27.10;40.50;;;;;;610819;234;26640;-65
2022/06/04 12:28:18;;;;;;;1.40;1.30;;;27.10;41.70;;;;;;602146;238;26679;-66
2022/06/04 12:30:47;;;;;;;1.00;1.00;;;27.40;41.30;;;;;;602432;238;26627;-66
2022/06/04 12:33:25;;;;;;;1.05;1.00;;;27.00;41.40;;;;;;601590;237;26638;-66
2022/06/04 12:36:09;;;;;;;1.20;1.20;;;27.00;41.30;;;;;;604371;237;26832;-66
2022/06/04 12:38:37;;;;;;;1.92;1.70;;;26.90;41.10;;;;;;600598;238;27246;-64
2022/06/04 12:41:07;;;;;;;2.58;1.65;;;26.90;41.30;;;;;;602119;237;26863;-64
2022/06/04 12:43:35;;;;;;;1.62;1.52;;;26.60;41.60;;;;;;608287;235;26586;-66
2022/06/04 12:46:10;;;;;;;2.35;1.90;;;26.50;41.90;;;;;;604483;235;26664;-66
2022/06/04 12:48:48;;;;;;;2.75;1.45;;;26.70;42.20;;;;;;609618;236;26888;-65
2022/06/04 12:51:15;;;;;;;2.28;1.67;;;26.60;42.20;;;;;;609194;236;27252;-66
2022/06/04 12:53:47;;;;;;;1.17;1.17;;;26.70;42.10;;;;;;603443;234;26672;-66
2022/06/04 12:56:16;;;;;;;1.30;1.20;;;26.80;42.70;;;;;;607305;235;26614;-64
2022/06/04 12:58:50;;;;;;;5.25;1.30;;;26.80;42.70;;;;;;601378;237;26629;-66
2022/06/04 13:01:33;;;;;;;1.73;1.62;;;26.90;42.60;;;;;;605972;235;26811;-66
2022/06/04 13:04:18;;;;;;;1.83;1.73;;;27.00;42.50;;;;;;608131;235;26673;-66
2022/06/04 13:06:47;;;;;;;1.80;1.70;;;27.00;42.30;;;;;;601890;237;26641;-66
2022/06/04 13:09:14;;;;;;;3.03;1.87;;;27.20;42.20;;;;;;604973;236;26612;-66
2022/06/04 13:12:02;;;;;;;1.02;1.00;;;27.70;41.40;;;;;;608173;236;26596;-66
2022/06/04 13:14:33;;;;;;;2.22;1.65;;;28.70;40.70;;;;;;603419;238;26664;-66
2022/06/04 13:17:00;;;;;;;2.35;1.60;;;29.70;39.20;;;;;;610683;235;26857;-66
2022/06/04 13:19:49;;;;;;;2.35;1.73;;;29.70;38.80;;;;;;609605;235;26556;-66
2022/06/04 13:22:26;;;;;;;2.65;1.75;;;29.00;38.80;;;;;;604471;230;26946;-66
2022/06/04 13:24:54;;;;;;;2.78;1.87;;;28.80;39.10;;;;;;604756;235;26654;-66